createdAt,value
2017-07-15T00:02:48.664Z,0
2017-07-15T00:12:48.621Z,0
2017-07-15T00:22:48.583Z,0
2017-07-15T00:32:48.619Z,0
2017-07-15T00:42:48.629Z,0
2017-07-15T00:52:48.609Z,0
2017-07-15T01:02:48.926Z,0
2017-07-15T01:12:48.611Z,0
2017-07-15T01:22:48.910Z,0
2017-07-15T01:32:49.271Z,0
2017-07-15T01:42:48.698Z,0
2017-07-15T01:52:48.600Z,0
2017-07-15T02:02:49.378Z,0
2017-07-15T02:12:48.624Z,0
2017-07-15T02:22:50.524Z,0
2017-07-15T02:32:53.243Z,0
2017-07-15T02:42:48.604Z,0
2017-07-15T02:52:48.597Z,0
2017-07-15T03:02:50.860Z,0
2017-07-15T03:12:48.585Z,0
2017-07-15T03:22:48.726Z,0
2017-07-15T03:32:48.602Z,0
2017-07-15T03:42:48.597Z,0
2017-07-15T03:52:48.609Z,10
2017-07-15T04:02:48.590Z,20
2017-07-15T04:12:48.597Z,35
2017-07-15T04:22:48.577Z,35
2017-07-15T04:32:48.590Z,35
2017-07-15T04:42:48.598Z,40
2017-07-15T04:52:48.699Z,35
2017-07-15T05:02:48.589Z,45
2017-07-15T05:12:48.598Z,90
2017-07-15T05:22:49.980Z,80
2017-07-15T05:32:49.776Z,75
2017-07-15T05:42:48.732Z,85
2017-07-15T05:52:48.600Z,115
2017-07-15T06:02:48.635Z,235
2017-07-15T06:12:48.606Z,120
2017-07-15T06:22:48.597Z,90
2017-07-15T06:32:48.620Z,80
2017-07-15T06:42:48.583Z,140
2017-07-15T06:52:48.645Z,160
2017-07-15T07:02:48.616Z,55
2017-07-15T07:12:48.598Z,140
2017-07-15T07:22:48.594Z,130
2017-07-15T07:32:48.636Z,185
2017-07-15T07:42:48.624Z,180
2017-07-15T07:52:48.622Z,235
2017-07-15T08:02:48.643Z,370
2017-07-15T08:12:48.608Z,330
2017-07-15T08:22:48.660Z,205
2017-07-15T08:32:48.626Z,110
2017-07-15T08:42:48.653Z,225
2017-07-15T08:52:48.615Z,200
2017-07-15T09:02:48.638Z,255
2017-07-15T09:12:49.489Z,305
2017-07-15T09:22:48.603Z,290
2017-07-15T09:32:48.654Z,90
2017-07-15T09:42:48.666Z,240
2017-07-15T09:52:48.648Z,265
2017-07-15T10:02:48.643Z,300
2017-07-15T10:12:48.649Z,335
2017-07-15T10:22:48.626Z,225
2017-07-15T10:32:48.630Z,215
2017-07-15T10:42:48.647Z,230
2017-07-15T10:52:48.661Z,305
2017-07-15T11:02:48.681Z,230
2017-07-15T11:12:48.652Z,165
2017-07-15T11:22:48.630Z,295
2017-07-15T11:32:48.642Z,320
2017-07-15T11:42:48.647Z,315
2017-07-15T11:52:48.627Z,300
2017-07-15T12:02:48.663Z,320
2017-07-15T12:12:48.655Z,240
2017-07-15T12:22:48.712Z,215
2017-07-15T12:32:48.629Z,225
2017-07-15T12:42:48.686Z,230
2017-07-15T12:52:48.627Z,205
2017-07-15T13:02:48.730Z,265
2017-07-15T13:12:48.646Z,260
2017-07-15T13:22:48.745Z,270
2017-07-15T13:32:48.712Z,275
2017-07-15T13:42:48.679Z,285
2017-07-15T13:52:48.660Z,220
2017-07-15T14:02:49.059Z,235
2017-07-15T14:12:48.681Z,280
2017-07-15T14:22:48.686Z,215
2017-07-15T14:32:48.710Z,235
2017-07-15T14:42:48.868Z,245
2017-07-15T14:52:48.692Z,215
2017-07-15T15:02:48.710Z,195
2017-07-15T15:12:49.174Z,195
2017-07-15T15:22:48.708Z,225
2017-07-15T15:32:50.834Z,195
2017-07-15T15:42:49.748Z,165
2017-07-15T15:52:48.730Z,180
2017-07-15T16:02:48.783Z,180
2017-07-15T16:12:48.792Z,170
2017-07-15T16:22:51.958Z,160
2017-07-15T16:32:49.829Z,140
2017-07-15T16:42:48.709Z,125
2017-07-15T16:52:50.794Z,145
2017-07-15T17:02:48.723Z,115
2017-07-15T17:12:48.696Z,105
2017-07-15T17:22:48.694Z,115
2017-07-15T17:32:48.702Z,90
2017-07-15T17:42:48.684Z,50
2017-07-15T17:52:48.696Z,50
2017-07-15T18:02:48.713Z,45
2017-07-15T18:12:48.754Z,40
2017-07-15T18:24:56.955Z,45
2017-07-15T18:32:48.708Z,35
2017-07-15T18:42:48.735Z,30
2017-07-15T18:52:48.726Z,30
2017-07-15T19:02:48.713Z,20
2017-07-15T19:12:48.772Z,10
2017-07-15T19:22:49.862Z,5
2017-07-15T19:32:48.735Z,5
2017-07-15T19:42:48.784Z,0
2017-07-15T19:52:48.777Z,0
2017-07-15T20:02:49.717Z,0
2017-07-15T20:12:48.776Z,0
2017-07-15T20:22:48.726Z,0
2017-07-15T20:32:48.727Z,0
2017-07-15T20:42:48.701Z,0
2017-07-15T20:52:48.731Z,0
2017-07-15T21:02:48.724Z,0
2017-07-15T21:12:48.752Z,0
2017-07-15T21:22:48.690Z,0
2017-07-15T21:32:48.741Z,0
2017-07-15T21:42:48.767Z,0
2017-07-15T21:52:48.730Z,0
2017-07-15T22:02:48.736Z,0
2017-07-15T22:12:49.174Z,0
2017-07-15T22:22:48.731Z,0
2017-07-15T22:32:48.725Z,0
2017-07-15T22:42:48.722Z,0
2017-07-15T22:52:48.723Z,0
2017-07-15T23:02:48.728Z,0
2017-07-15T23:12:48.752Z,0
2017-07-15T23:22:48.896Z,0
2017-07-15T23:32:48.795Z,0
2017-07-15T23:42:48.768Z,0
2017-07-15T23:52:48.737Z,0
